Time;durP1;ratioP1;P1;durP2;ratioP2;P2;SDS_P1;SDS_P2;PMS_P1;PMS_P2;Temp;Humidity;BMP_temperature;BMP_pressure;BME280_temperature;BME280_humidity;BME280_pressure;Samples;Min_cycle;Max_cycle;Signal;HPM_P1;HPM_P2
2024/03/17 00:01:36;;;;;;;11.87;3.97;;;4.60;99.90;;;;;;5009822;28;20428;-64
2024/03/17 00:04:02;;;;;;;5.07;2.20;;;4.50;99.90;;;;;;5009989;28;20793;-64
2024/03/17 00:06:28;;;;;;;6.87;3.10;;;4.40;99.90;;;;;;5009086;28;20454;-64
2024/03/17 00:08:54;;;;;;;9.13;3.20;;;4.40;99.90;;;;;;5010530;28;20467;-63
2024/03/17 00:11:20;;;;;;;7.23;2.60;;;4.40;99.90;;;;;;5010688;28;20216;-63
2024/03/17 00:13:45;;;;;;;15.30;2.40;;;4.50;99.90;;;;;;5011522;28;20505;-63
2024/03/17 00:16:13;;;;;;;12.43;2.80;;;4.50;99.90;;;;;;5009824;28;20232;-63
2024/03/17 00:18:39;;;;;;;6.70;2.50;;;4.50;99.90;;;;;;5009988;28;20204;-65
2024/03/17 00:21:04;;;;;;;20.83;3.07;;;4.40;99.90;;;;;;5010186;28;20431;-63
2024/03/17 00:23:30;;;;;;;8.80;2.70;;;4.50;99.90;;;;;;5009839;28;20422;-63
2024/03/17 00:25:55;;;;;;;6.90;1.90;;;4.40;99.90;;;;;;5010271;28;20208;-62
2024/03/17 00:28:21;;;;;;;5.13;2.17;;;4.30;99.90;;;;;;5009491;28;20222;-63
2024/03/17 00:30:47;;;;;;;7.43;2.23;;;4.40;99.90;;;;;;5009083;28;20180;-63
2024/03/17 00:33:14;;;;;;;10.50;2.00;;;4.50;99.90;;;;;;5009678;28;20208;-63
2024/03/17 00:35:39;;;;;;;18.20;2.57;;;4.50;99.90;;;;;;5009920;28;20287;-63
2024/03/17 00:38:10;;;;;;;10.83;2.10;;;4.40;99.90;;;;;;5010334;28;20430;-63
2024/03/17 00:40:38;;;;;;;11.00;2.43;;;4.40;99.90;;;;;;5009114;28;20530;-64
2024/03/17 00:43:04;;;;;;;7.60;2.03;;;4.40;99.90;;;;;;5009756;28;20435;-64
2024/03/17 00:45:30;;;;;;;5.23;2.27;;;4.40;99.90;;;;;;5008819;28;20534;-64
2024/03/17 00:47:55;;;;;;;5.50;2.30;;;4.40;99.90;;;;;;5009388;28;20184;-63
2024/03/17 00:50:21;;;;;;;8.60;2.00;;;4.30;99.90;;;;;;5009103;28;20195;-63
2024/03/17 00:52:46;;;;;;;16.27;2.47;;;4.20;99.90;;;;;;5008646;28;20204;-63
2024/03/17 00:55:14;;;;;;;12.07;4.23;;;4.30;99.90;;;;;;5008704;28;20669;-63
2024/03/17 00:57:40;;;;;;;4.90;2.13;;;4.50;99.90;;;;;;5009134;28;20544;-63
2024/03/17 01:00:06;;;;;;;5.67;2.70;;;4.40;99.90;;;;;;5008929;28;20442;-62
2024/03/17 01:02:32;;;;;;;11.77;3.10;;;4.40;99.90;;;;;;5007317;28;20935;-62
2024/03/17 01:04:57;;;;;;;5.40;2.10;;;4.40;99.90;;;;;;5008683;28;20514;-64
2024/03/17 01:07:23;;;;;;;6.57;1.93;;;4.30;99.90;;;;;;5009162;28;20735;-64
2024/03/17 01:09:48;;;;;;;4.70;1.87;;;4.30;99.90;;;;;;5009163;28;20203;-63
2024/03/17 01:12:14;;;;;;;6.83;1.80;;;4.30;99.90;;;;;;5009254;28;20188;-63
2024/03/17 01:14:40;;;;;;;10.03;2.33;;;4.30;99.90;;;;;;5009329;28;20233;-63
2024/03/17 01:17:06;;;;;;;13.67;5.77;;;4.20;99.90;;;;;;5004991;28;20446;-64
2024/03/17 01:19:32;;;;;;;14.80;2.90;;;4.30;99.90;;;;;;5008334;28;20219;-64
2024/03/17 01:22:00;;;;;;;13.43;2.37;;;4.10;99.90;;;;;;5008818;28;20362;-64
2024/03/17 01:24:28;;;;;;;14.30;3.00;;;4.20;99.90;;;;;;5008830;28;20848;-64
2024/03/17 01:26:53;;;;;;;9.43;2.53;;;4.10;99.90;;;;;;5008867;28;20514;-64
2024/03/17 01:29:19;;;;;;;4.90;2.20;;;4.20;99.90;;;;;;5008984;28;20993;-63
2024/03/17 01:31:44;;;;;;;10.83;2.47;;;4.20;99.90;;;;;;5008872;28;20548;-63
2024/03/17 01:34:11;;;;;;;12.87;3.07;;;4.20;99.90;;;;;;5008763;28;20358;-63
2024/03/17 01:36:36;;;;;;;7.23;2.20;;;4.00;99.90;;;;;;5007642;28;20639;-62
2024/03/17 01:39:02;;;;;;;11.73;2.20;;;4.00;99.90;;;;;;4991476;28;20465;-64
2024/03/17 01:41:28;;;;;;;11.57;3.60;;;4.10;99.90;;;;;;5008843;28;20227;-64
2024/03/17 01:43:53;;;;;;;7.80;2.97;;;4.10;99.90;;;;;;5008910;28;20346;-64
2024/03/17 01:46:19;;;;;;;7.37;2.50;;;4.00;99.90;;;;;;5008782;28;20185;-64
2024/03/17 01:48:45;;;;;;;11.43;2.43;;;4.00;99.90;;;;;;5008604;28;20211;-64
2024/03/17 01:51:14;;;;;;;6.10;2.13;;;3.90;99.90;;;;;;5008955;28;20185;-64
2024/03/17 01:53:42;;;;;;;6.03;2.27;;;4.00;99.90;;;;;;5008101;28;20528;-64
2024/03/17 01:56:09;;;;;;;5.20;2.20;;;4.00;99.90;;;;;;5008757;28;20519;-62
2024/03/17 01:58:36;;;;;;;9.57;2.50;;;4.00;99.90;;;;;;5008318;28;20501;-64
2024/03/17 02:01:04;;;;;;;14.50;2.83;;;3.90;99.90;;;;;;5008901;28;20419;-64
2024/03/17 02:03:30;;;;;;;8.83;2.13;;;3.90;99.90;;;;;;5007945;28;20419;-64
2024/03/17 02:05:55;;;;;;;12.13;2.50;;;4.00;99.90;;;;;;5009031;28;21019;-64
2024/03/17 02:08:22;;;;;;;9.70;2.13;;;4.00;99.90;;;;;;5007583;28;20451;-63
2024/03/17 02:10:55;;;;;;;5.53;2.60;;;4.00;99.90;;;;;;5012276;28;20219;-63
2024/03/17 02:13:23;;;;;;;7.83;1.97;;;4.00;99.90;;;;;;5012496;28;20783;-63
2024/03/17 02:15:49;;;;;;;12.33;3.30;;;4.00;99.90;;;;;;5006183;28;20465;-63
2024/03/17 02:18:15;;;;;;;6.37;1.90;;;3.90;99.90;;;;;;5012593;28;20846;-64
2024/03/17 02:20:58;;;;;;;11.93;3.67;;;3.90;99.90;;;;;;5012634;28;20785;-64
2024/03/17 02:23:26;;;;;;;5.83;2.30;;;3.80;99.90;;;;;;5012986;28;20188;-62
2024/03/17 02:25:52;;;;;;;5.13;1.90;;;3.90;99.90;;;;;;5012524;28;20415;-62
2024/03/17 02:28:18;;;;;;;3.90;2.33;;;3.80;99.90;;;;;;5015108;28;20453;-63
2024/03/17 02:30:44;;;;;;;10.33;2.87;;;3.80;99.90;;;;;;5011832;28;20427;-63
2024/03/17 02:33:10;;;;;;;8.70;3.07;;;3.70;99.90;;;;;;5011786;28;20588;-63
2024/03/17 02:35:35;;;;;;;6.60;2.00;;;3.70;99.90;;;;;;5011585;28;20525;-63
2024/03/17 02:38:02;;;;;;;9.53;2.90;;;3.60;99.90;;;;;;5011662;28;20187;-64
2024/03/17 02:40:28;;;;;;;5.33;2.30;;;3.60;99.90;;;;;;5011573;28;20187;-62
2024/03/17 02:42:55;;;;;;;18.10;3.57;;;3.50;99.90;;;;;;5011623;28;20741;-63
2024/03/17 02:45:21;;;;;;;8.40;2.00;;;3.60;99.90;;;;;;5011598;28;20961;-64
2024/03/17 02:47:50;;;;;;;9.60;2.73;;;3.60;99.90;;;;;;5011629;28;20498;-63
2024/03/17 02:50:15;;;;;;;5.80;1.80;;;3.50;99.90;;;;;;5012106;28;20909;-63
2024/03/17 02:52:41;;;;;;;8.53;2.20;;;3.40;99.90;;;;;;5011355;28;20455;-63
2024/03/17 02:55:07;;;;;;;8.37;1.97;;;3.50;99.90;;;;;;5011585;28;20176;-65
2024/03/17 02:57:32;;;;;;;8.43;2.83;;;3.40;99.90;;;;;;5011095;28;20184;-63
2024/03/17 02:59:58;;;;;;;9.30;3.60;;;3.40;99.90;;;;;;5011501;28;20204;-62
2024/03/17 03:02:24;;;;;;;9.63;2.10;;;3.50;99.90;;;;;;5011329;28;20275;-63
2024/03/17 03:04:50;;;;;;;11.20;2.30;;;3.40;99.90;;;;;;4993620;28;20438;-63
2024/03/17 03:07:16;;;;;;;6.67;2.30;;;3.40;99.90;;;;;;5011432;28;20195;-63
2024/03/17 03:09:41;;;;;;;10.40;2.80;;;3.30;99.90;;;;;;5011265;28;20717;-63
2024/03/17 03:12:07;;;;;;;7.13;2.43;;;3.40;99.90;;;;;;5011460;28;20660;-62
2024/03/17 03:14:33;;;;;;;9.43;4.93;;;3.40;99.90;;;;;;5011187;28;20555;-65
2024/03/17 03:16:59;;;;;;;10.80;2.53;;;3.30;99.90;;;;;;5011230;28;20858;-63
2024/03/17 03:19:26;;;;;;;7.07;3.50;;;3.20;99.90;;;;;;5011061;28;20443;-62
2024/03/17 03:21:52;;;;;;;10.23;3.20;;;3.30;99.90;;;;;;5011131;28;20183;-62
2024/03/17 03:24:18;;;;;;;9.40;3.40;;;3.30;99.90;;;;;;5011623;28;20423;-63
2024/03/17 03:26:44;;;;;;;8.20;2.33;;;3.30;99.90;;;;;;5011018;28;20514;-63
2024/03/17 03:29:14;;;;;;;9.57;2.53;;;3.30;99.90;;;;;;5010852;28;20470;-63
2024/03/17 03:31:40;;;;;;;8.27;2.50;;;3.20;99.90;;;;;;5010833;28;20203;-63
2024/03/17 03:34:07;;;;;;;9.10;2.30;;;3.20;99.90;;;;;;5010602;28;20469;-62
2024/03/17 03:36:35;;;;;;;6.37;2.20;;;3.30;99.90;;;;;;5010513;28;20246;-62
2024/03/17 03:39:01;;;;;;;7.10;3.27;;;3.20;99.90;;;;;;5010505;28;20958;-63
2024/03/17 03:41:26;;;;;;;11.17;3.17;;;3.20;99.90;;;;;;5010647;28;20438;-62
2024/03/17 03:43:52;;;;;;;11.70;2.33;;;3.10;99.90;;;;;;5010147;28;20702;-63
2024/03/17 03:46:18;;;;;;;11.83;2.73;;;3.10;99.90;;;;;;5010504;28;20188;-64
2024/03/17 03:48:43;;;;;;;7.67;3.03;;;3.10;99.90;;;;;;5010282;28;20292;-63
2024/03/17 03:51:10;;;;;;;5.57;2.20;;;3.10;99.90;;;;;;5010577;28;20196;-62
2024/03/17 03:53:37;;;;;;;7.87;2.23;;;3.20;99.90;;;;;;5010067;28;20219;-63
2024/03/17 03:56:06;;;;;;;8.50;1.90;;;3.00;99.90;;;;;;5010690;28;20424;-63
2024/03/17 03:58:35;;;;;;;14.10;2.37;;;2.90;99.90;;;;;;5010777;28;20859;-62
2024/03/17 04:01:08;;;;;;;17.20;2.13;;;3.10;99.90;;;;;;5007767;28;20441;-63
2024/03/17 04:03:35;;;;;;;11.53;2.83;;;3.10;99.90;;;;;;5010458;28;20960;-63
2024/03/17 04:06:06;;;;;;;12.50;2.80;;;3.10;99.90;;;;;;5009806;28;20427;-64
2024/03/17 04:08:35;;;;;;;7.07;2.03;;;3.10;99.90;;;;;;5009632;28;20924;-64
2024/03/17 04:11:02;;;;;;;6.50;2.23;;;3.00;99.90;;;;;;5009793;28;20663;-64
2024/03/17 04:13:33;;;;;;;12.53;3.10;;;3.00;99.90;;;;;;5009978;28;20954;-62
2024/03/17 04:15:59;;;;;;;7.83;3.00;;;3.00;99.90;;;;;;5002113;28;20428;-63
2024/03/17 04:18:30;;;;;;;11.03;2.60;;;3.00;99.90;;;;;;5009847;28;20455;-64
2024/03/17 04:20:57;;;;;;;7.90;2.40;;;3.00;99.90;;;;;;5001852;28;20423;-63
2024/03/17 04:23:23;;;;;;;17.97;3.63;;;3.00;99.90;;;;;;5007417;28;20435;-63
2024/03/17 04:25:50;;;;;;;18.07;2.33;;;2.90;99.90;;;;;;5009194;28;20435;-62
2024/03/17 04:28:16;;;;;;;8.10;2.37;;;2.90;99.90;;;;;;5009535;28;20497;-63
2024/03/17 04:30:42;;;;;;;7.20;2.10;;;2.80;99.90;;;;;;5009189;28;20521;-63
2024/03/17 04:33:09;;;;;;;16.27;3.30;;;2.90;99.90;;;;;;5009550;28;20208;-62
2024/03/17 04:35:38;;;;;;;13.63;2.30;;;2.90;99.90;;;;;;5009416;28;20419;-63
2024/03/17 04:38:04;;;;;;;11.77;2.67;;;3.00;99.90;;;;;;5010102;28;20443;-65
2024/03/17 04:40:30;;;;;;;6.90;1.83;;;3.00;99.90;;;;;;5007274;28;20439;-63
2024/03/17 04:42:56;;;;;;;7.60;2.93;;;2.90;99.90;;;;;;4991032;28;20469;-63
2024/03/17 04:45:21;;;;;;;9.13;2.50;;;2.90;99.90;;;;;;5009183;28;20192;-64
2024/03/17 04:47:47;;;;;;;10.00;2.13;;;2.90;99.90;;;;;;5009197;28;20246;-63
2024/03/17 04:50:12;;;;;;;10.97;3.40;;;2.90;99.90;;;;;;5009524;28;20195;-62
2024/03/17 04:52:38;;;;;;;13.57;2.80;;;2.90;99.90;;;;;;5009146;28;20242;-62
2024/03/17 04:55:04;;;;;;;10.43;2.33;;;2.90;99.90;;;;;;5009562;28;20179;-63
2024/03/17 04:57:30;;;;;;;11.73;2.63;;;2.80;99.90;;;;;;5009856;28;20423;-63
2024/03/17 04:59:56;;;;;;;8.63;2.73;;;2.70;99.90;;;;;;5006495;28;20694;-63
2024/03/17 05:02:22;;;;;;;5.80;2.20;;;2.70;99.90;;;;;;5001600;28;20195;-62
2024/03/17 05:04:51;;;;;;;11.23;1.90;;;2.70;99.90;;;;;;5007585;28;20177;-63
2024/03/17 05:07:17;;;;;;;7.90;2.43;;;2.60;99.90;;;;;;5009099;28;20838;-66
2024/03/17 05:09:43;;;;;;;7.43;1.90;;;2.60;99.90;;;;;;5009092;28;20466;-62
2024/03/17 05:12:09;;;;;;;11.80;2.90;;;2.60;99.90;;;;;;5009189;28;20195;-62
2024/03/17 05:14:35;;;;;;;9.50;2.60;;;2.60;99.90;;;;;;5008833;28;20435;-63
2024/03/17 05:17:01;;;;;;;8.60;3.13;;;2.60;99.90;;;;;;5009105;28;20885;-64
2024/03/17 05:19:27;;;;;;;11.43;2.23;;;2.60;99.90;;;;;;5009229;28;20447;-62
2024/03/17 05:21:52;;;;;;;4.43;2.03;;;2.70;99.90;;;;;;5006908;28;20184;-62
2024/03/17 05:24:19;;;;;;;8.90;2.40;;;2.60;99.90;;;;;;5008795;28;20358;-62
2024/03/17 05:26:45;;;;;;;7.43;3.23;;;2.60;99.90;;;;;;5008652;28;20259;-63
2024/03/17 05:29:11;;;;;;;7.70;2.90;;;2.70;99.90;;;;;;5006026;28;20466;-65
2024/03/17 05:31:38;;;;;;;12.13;2.27;;;2.60;99.90;;;;;;5007301;28;20424;-63
2024/03/17 05:34:06;;;;;;;9.60;2.80;;;2.70;99.90;;;;;;5009258;28;20298;-63
2024/03/17 05:36:33;;;;;;;11.30;1.80;;;2.60;99.90;;;;;;5008791;28;20434;-62
2024/03/17 05:38:59;;;;;;;17.63;3.47;;;2.70;99.90;;;;;;5008897;28;20446;-63
2024/03/17 05:41:25;;;;;;;13.97;2.87;;;2.70;99.90;;;;;;5010222;28;20493;-63
2024/03/17 05:43:51;;;;;;;8.47;2.57;;;2.70;99.90;;;;;;5012910;28;20807;-62
2024/03/17 05:46:17;;;;;;;9.53;2.70;;;2.70;99.90;;;;;;5013070;28;20497;-63
2024/03/17 05:48:43;;;;;;;9.53;3.67;;;2.70;99.90;;;;;;5012938;28;20207;-65
2024/03/17 05:51:12;;;;;;;10.83;2.93;;;2.70;99.90;;;;;;5010138;28;20489;-65
2024/03/17 05:53:44;;;;;;;11.33;2.00;;;2.70;99.90;;;;;;5011585;28;20454;-65
2024/03/17 05:56:11;;;;;;;7.70;2.00;;;2.70;99.90;;;;;;5012826;28;21145;-70
2024/03/17 05:58:37;;;;;;;8.50;1.97;;;2.80;99.90;;;;;;5011477;28;20435;-62
2024/03/17 06:01:03;;;;;;;11.23;2.03;;;2.80;99.90;;;;;;5012487;28;20445;-64
2024/03/17 06:03:29;;;;;;;7.17;3.27;;;2.80;99.90;;;;;;5009881;28;20433;-62
2024/03/17 06:05:55;;;;;;;9.13;2.73;;;2.90;99.90;;;;;;5011496;28;20427;-64
2024/03/17 06:08:21;;;;;;;7.90;2.50;;;2.90;99.90;;;;;;5012208;28;20208;-64
2024/03/17 06:10:48;;;;;;;8.30;2.13;;;2.90;99.90;;;;;;5011285;28;20180;-63
2024/03/17 06:13:16;;;;;;;5.80;2.40;;;3.00;99.90;;;;;;5011853;28;20507;-60
2024/03/17 06:15:48;;;;;;;4.33;2.10;;;3.20;99.90;;;;;;5010642;28;20419;-61
2024/03/17 06:18:16;;;;;;;4.40;1.97;;;3.40;99.90;;;;;;5011111;28;20573;-61
2024/03/17 06:20:43;;;;;;;10.33;3.63;;;3.60;99.90;;;;;;5011419;28;20429;-62
2024/03/17 06:23:10;;;;;;;11.83;2.00;;;3.90;99.90;;;;;;5009758;28;20751;-63
2024/03/17 06:25:43;;;;;;;7.80;2.17;;;4.10;99.90;;;;;;5008291;28;20423;-61
2024/03/17 06:28:13;;;;;;;7.90;2.00;;;4.40;99.90;;;;;;5009222;28;20451;-63
2024/03/17 06:30:40;;;;;;;5.90;2.20;;;4.30;99.90;;;;;;5008328;28;20417;-62
2024/03/17 06:33:06;;;;;;;11.77;2.97;;;4.60;99.90;;;;;;5011072;28;20466;-63
2024/03/17 06:35:31;;;;;;;6.10;1.73;;;4.50;99.90;;;;;;5012034;28;20774;-62
2024/03/17 06:38:02;;;;;;;4.00;2.27;;;5.00;99.90;;;;;;5007250;28;20624;-63
2024/03/17 06:40:28;;;;;;;10.13;2.73;;;4.80;99.90;;;;;;5010465;28;20186;-64
2024/03/17 06:42:54;;;;;;;8.40;2.70;;;5.00;99.90;;;;;;5011197;28;20439;-63
2024/03/17 06:45:23;;;;;;;4.77;2.37;;;5.10;99.90;;;;;;5008996;28;20186;-64
2024/03/17 06:47:48;;;;;;;6.80;2.50;;;5.30;99.90;;;;;;5006233;28;20434;-63
2024/03/17 06:50:14;;;;;;;6.10;2.63;;;5.70;99.90;;;;;;5010497;28;20533;-62
2024/03/17 06:52:40;;;;;;;5.77;2.20;;;5.50;99.90;;;;;;5009718;28;20572;-63
2024/03/17 06:55:06;;;;;;;8.60;3.10;;;5.40;99.90;;;;;;5007048;28;20880;-63
2024/03/17 06:57:35;;;;;;;8.20;2.30;;;5.10;99.90;;;;;;5007413;28;20789;-63
2024/03/17 07:00:05;;;;;;;7.40;2.47;;;5.60;99.90;;;;;;5011106;28;20936;-62
2024/03/17 07:02:32;;;;;;;13.43;2.70;;;5.80;99.90;;;;;;5011485;28;20414;-62
2024/03/17 07:04:58;;;;;;;14.20;2.40;;;5.80;99.90;;;;;;5008262;28;20920;-63
2024/03/17 07:07:26;;;;;;;9.43;3.40;;;6.20;99.90;;;;;;5010900;28;20547;-62
2024/03/17 07:09:51;;;;;;;9.27;3.13;;;5.90;99.90;;;;;;5010896;28;20630;-63
2024/03/17 07:12:17;;;;;;;11.10;2.90;;;6.40;99.90;;;;;;5010720;28;20421;-62
2024/03/17 07:14:42;;;;;;;8.77;1.87;;;6.40;99.90;;;;;;5010993;28;20180;-63
2024/03/17 07:17:08;;;;;;;7.50;2.23;;;6.10;99.90;;;;;;5010239;28;20281;-62
2024/03/17 07:19:35;;;;;;;6.50;1.97;;;6.20;99.90;;;;;;5010840;28;20196;-63
2024/03/17 07:22:01;;;;;;;10.03;2.37;;;6.10;99.90;;;;;;5009380;28;20216;-62
2024/03/17 07:24:27;;;;;;;8.30;2.30;;;6.40;99.90;;;;;;5003100;28;20435;-63
2024/03/17 07:26:53;;;;;;;8.27;2.77;;;6.50;99.90;;;;;;5010404;28;20936;-63
2024/03/17 07:29:21;;;;;;;10.27;2.03;;;6.20;99.90;;;;;;5010437;28;20663;-64
2024/03/17 07:31:47;;;;;;;12.10;2.97;;;6.30;99.90;;;;;;5010037;28;20181;-64
2024/03/17 07:34:12;;;;;;;5.30;2.07;;;6.50;99.90;;;;;;5010337;28;20485;-62
2024/03/17 07:36:39;;;;;;;9.40;2.53;;;6.70;99.90;;;;;;5010224;28;20187;-64
2024/03/17 07:39:07;;;;;;;7.20;2.83;;;6.70;99.90;;;;;;5008132;28;20196;-64
2024/03/17 07:41:32;;;;;;;11.80;3.57;;;6.30;99.90;;;;;;5006627;28;20439;-63
2024/03/17 07:43:58;;;;;;;15.60;3.53;;;6.60;99.90;;;;;;5009625;28;20982;-64
2024/03/17 07:46:24;;;;;;;6.77;2.23;;;6.00;99.90;;;;;;5010146;28;20419;-63
2024/03/17 07:48:49;;;;;;;7.00;2.33;;;6.30;99.90;;;;;;5009817;28;20224;-63
2024/03/17 07:51:19;;;;;;;7.87;2.27;;;6.40;99.90;;;;;;5009807;28;20175;-64
2024/03/17 07:53:47;;;;;;;6.20;1.97;;;6.90;99.90;;;;;;4989619;28;20196;-62
2024/03/17 07:56:14;;;;;;;11.43;2.40;;;6.70;99.90;;;;;;5010046;28;21064;-63
2024/03/17 07:58:41;;;;;;;6.20;2.10;;;6.60;99.90;;;;;;5011044;28;20441;-63
2024/03/17 08:01:10;;;;;;;7.97;2.53;;;7.50;99.90;;;;;;5007141;28;20526;-63
2024/03/17 08:03:40;;;;;;;7.80;2.60;;;6.90;99.90;;;;;;5010897;28;20451;-63
2024/03/17 08:06:08;;;;;;;4.20;1.93;;;6.90;99.90;;;;;;5007086;28;20446;-61
2024/03/17 08:08:34;;;;;;;9.20;2.33;;;7.40;99.90;;;;;;5010850;28;20811;-64
2024/03/17 08:11:03;;;;;;;7.97;2.27;;;7.40;99.90;;;;;;5010009;28;20832;-64
2024/03/17 08:13:34;;;;;;;7.10;1.93;;;7.60;99.90;;;;;;5009959;28;20781;-61
2024/03/17 08:16:09;;;;;;;8.33;2.57;;;7.70;99.90;;;;;;5008535;28;20416;-63
2024/03/17 08:18:35;;;;;;;7.00;2.13;;;7.60;99.90;;;;;;5009924;28;20446;-64
2024/03/17 08:21:04;;;;;;;8.70;2.30;;;8.10;99.90;;;;;;5006534;28;20427;-64
2024/03/17 08:23:29;;;;;;;8.23;2.30;;;8.60;99.90;;;;;;5009810;28;20177;-63
2024/03/17 08:25:57;;;;;;;7.77;2.37;;;9.40;99.90;;;;;;5005421;28;20767;-61
2024/03/17 08:28:23;;;;;;;3.47;1.57;;;9.90;99.90;;;;;;5009484;28;20230;-61
2024/03/17 08:30:56;;;;;;;4.80;1.80;;;10.00;99.90;;;;;;5008645;28;20415;-62
2024/03/17 08:33:23;;;;;;;10.40;2.40;;;9.10;99.90;;;;;;5009506;28;20524;-62
2024/03/17 08:36:01;;;;;;;10.17;2.13;;;8.90;99.90;;;;;;5009462;28;20777;-63
2024/03/17 08:38:28;;;;;;;9.07;2.50;;;9.10;99.90;;;;;;5008721;28;20467;-62
2024/03/17 08:40:55;;;;;;;10.00;2.23;;;8.90;99.90;;;;;;5008746;28;20514;-63
2024/03/17 08:43:22;;;;;;;3.73;1.73;;;9.60;99.90;;;;;;5007041;28;20824;-64
2024/03/17 08:46:06;;;;;;;8.80;5.70;;;9.40;99.90;;;;;;5008972;28;20569;-61
2024/03/17 08:48:33;;;;;;;6.77;2.13;;;8.90;99.90;;;;;;5009559;28;20439;-62
2024/03/17 08:51:01;;;;;;;4.57;1.97;;;8.40;99.90;;;;;;5008680;28;20422;-62
2024/03/17 08:53:28;;;;;;;3.90;1.70;;;8.70;99.90;;;;;;5009595;28;20549;-62
2024/03/17 08:55:54;;;;;;;5.60;1.80;;;8.40;99.90;;;;;;5009170;28;20415;-63
2024/03/17 08:58:20;;;;;;;7.43;1.70;;;8.60;99.90;;;;;;5009363;28;20958;-63
2024/03/17 09:00:46;;;;;;;5.63;2.10;;;8.70;99.90;;;;;;5009111;28;20902;-63
2024/03/17 09:03:12;;;;;;;2.47;1.27;;;8.70;99.90;;;;;;5003087;28;20435;-63
2024/03/17 09:05:43;;;;;;;9.27;1.80;;;9.00;99.90;;;;;;5009503;28;20216;-62
2024/03/17 09:08:21;;;;;;;3.13;1.33;;;8.90;99.90;;;;;;5008922;28;20972;-63
2024/03/17 09:10:48;;;;;;;6.03;1.83;;;9.30;99.90;;;;;;5009172;28;20435;-63
2024/03/17 09:13:18;;;;;;;8.27;2.40;;;9.40;99.90;;;;;;5006829;28;20577;-62
2024/03/17 09:15:54;;;;;;;4.10;2.20;;;8.80;99.90;;;;;;5011483;28;20426;-63
2024/03/17 09:18:20;;;;;;;3.77;2.10;;;9.10;99.90;;;;;;5014726;28;20504;-62
2024/03/17 09:20:46;;;;;;;6.00;2.27;;;9.40;99.90;;;;;;5017900;28;20415;-64
2024/03/17 09:23:13;;;;;;;6.10;1.87;;;9.60;99.90;;;;;;5011938;28;20635;-61
2024/03/17 09:25:39;;;;;;;6.50;1.70;;;9.70;99.90;;;;;;5015522;28;20504;-63
2024/03/17 09:28:05;;;;;;;7.23;2.03;;;9.20;99.90;;;;;;5014661;28;20438;-63
2024/03/17 09:30:30;;;;;;;5.87;1.67;;;9.80;99.90;;;;;;5015674;28;20187;-63
2024/03/17 09:32:56;;;;;;;8.47;2.13;;;10.10;99.90;;;;;;5015147;28;20204;-63
2024/03/17 09:35:21;;;;;;;3.00;1.77;;;9.70;99.90;;;;;;5015484;28;20259;-63
2024/03/17 09:37:47;;;;;;;4.77;2.00;;;10.20;99.90;;;;;;5013114;28;20258;-63
2024/03/17 09:40:16;;;;;;;1.70;1.60;;;9.90;99.90;;;;;;5014824;28;20709;-63
2024/03/17 09:42:44;;;;;;;5.80;2.13;;;9.90;99.90;;;;;;5015572;28;20182;-63
2024/03/17 09:45:11;;;;;;;2.37;1.50;;;10.30;99.90;;;;;;5014971;28;20451;-62
2024/03/17 09:47:36;;;;;;;4.23;1.90;;;10.90;99.90;;;;;;5015415;28;20438;-63
2024/03/17 09:50:02;;;;;;;6.90;2.23;;;10.40;99.60;;;;;;5013571;28;20451;-63
2024/03/17 09:52:29;;;;;;;2.50;1.50;;;10.50;98.30;;;;;;5014874;28;20270;-63
2024/03/17 09:55:00;;;;;;;4.60;1.90;;;10.10;99.40;;;;;;5014391;28;20473;-63
2024/03/17 09:57:26;;;;;;;4.00;1.97;;;11.40;98.40;;;;;;5015193;28;20420;-63
2024/03/17 09:59:56;;;;;;;3.87;1.50;;;11.60;97.60;;;;;;5012160;28;20446;-63
2024/03/17 10:02:22;;;;;;;6.00;2.03;;;11.30;97.20;;;;;;5014411;28;20911;-64
2024/03/17 10:04:48;;;;;;;9.70;1.67;;;10.60;96.90;;;;;;5014928;28;20774;-63
2024/03/17 10:07:14;;;;;;;3.73;1.63;;;9.70;98.30;;;;;;5012686;28;20752;-63
2024/03/17 10:09:41;;;;;;;3.03;1.50;;;9.60;98.80;;;;;;5015024;28;20446;-63
2024/03/17 10:12:28;;;;;;;6.83;2.53;;;8.90;99.90;;;;;;5014826;28;20430;-64
2024/03/17 10:15:01;;;;;;;5.33;1.57;;;8.70;99.90;;;;;;5014756;28;20449;-63
2024/03/17 10:17:32;;;;;;;8.80;2.77;;;8.50;99.90;;;;;;5015082;28;20419;-64
2024/03/17 10:20:15;;;;;;;5.10;1.37;;;8.90;99.90;;;;;;5014060;28;20442;-64
2024/03/17 10:22:57;;;;;;;3.20;1.87;;;9.30;99.90;;;;;;5012058;28;20435;-64
2024/03/17 10:25:23;;;;;;;3.40;1.33;;;9.70;99.90;;;;;;5012308;28;20415;-66
2024/03/17 10:27:48;;;;;;;2.00;1.27;;;9.70;99.90;;;;;;5012528;28;20469;-64
2024/03/17 10:30:21;;;;;;;5.37;1.80;;;9.80;99.80;;;;;;5011387;28;20577;-63
2024/03/17 10:32:58;;;;;;;6.87;1.77;;;9.60;99.70;;;;;;5010705;28;20208;-66
2024/03/17 10:35:41;;;;;;;5.10;1.93;;;9.60;99.60;;;;;;5010967;28;20411;-65
2024/03/17 10:38:09;;;;;;;8.87;2.07;;;9.30;99.10;;;;;;5011295;28;20481;-63
2024/03/17 10:40:38;;;;;;;6.70;1.70;;;9.20;99.90;;;;;;5011391;28;20477;-64
2024/03/17 10:43:04;;;;;;;3.00;1.20;;;9.10;99.90;;;;;;5008959;28;23151;-63
2024/03/17 10:45:37;;;;;;;5.47;2.30;;;9.10;99.90;;;;;;5010728;28;20525;-63
2024/03/17 10:48:07;;;;;;;9.60;1.93;;;9.40;99.90;;;;;;5011001;28;20498;-63
2024/03/17 10:50:37;;;;;;;11.23;1.70;;;9.50;99.90;;;;;;5011007;28;20455;-66
2024/03/17 10:53:08;;;;;;;3.40;1.60;;;9.20;99.60;;;;;;5011110;28;20467;-63
2024/03/17 10:55:47;;;;;;;4.30;1.47;;;9.10;99.80;;;;;;4993030;28;20932;-63
2024/03/17 10:58:36;;;;;;;5.57;2.00;;;9.10;99.70;;;;;;5011086;28;20442;-63
2024/03/17 11:01:07;;;;;;;4.07;1.60;;;9.30;98.60;;;;;;5011172;28;20928;-62
2024/03/17 11:03:34;;;;;;;6.47;2.20;;;9.50;98.20;;;;;;5011231;28;20431;-63
2024/03/17 11:06:05;;;;;;;5.80;1.60;;;9.50;98.10;;;;;;5010761;28;20415;-64
2024/03/17 11:08:33;;;;;;;5.27;1.60;;;8.60;99.10;;;;;;5009125;28;20569;-62
2024/03/17 11:10:58;;;;;;;5.40;2.07;;;8.70;99.40;;;;;;5010410;28;20513;-62
2024/03/17 11:13:28;;;;;;;6.97;1.87;;;8.60;99.00;;;;;;5010657;28;20505;-63
2024/03/17 11:16:04;;;;;;;5.90;1.60;;;8.50;99.20;;;;;;5010864;28;20694;-62
2024/03/17 11:18:37;;;;;;;8.00;1.87;;;8.60;98.50;;;;;;5008960;28;20957;-63
2024/03/17 11:21:15;;;;;;;3.60;1.20;;;8.70;98.00;;;;;;5010444;28;20513;-64
2024/03/17 11:23:41;;;;;;;6.00;1.73;;;8.80;98.00;;;;;;5006984;28;20438;-63
2024/03/17 11:26:08;;;;;;;2.30;1.77;;;9.20;98.30;;;;;;5006528;28;21019;-62
2024/03/17 11:28:43;;;;;;;4.97;1.50;;;9.00;97.60;;;;;;5009972;28;20482;-64
2024/03/17 11:31:32;;;;;;;5.03;1.57;;;8.50;98.00;;;;;;5010372;28;21094;-62
2024/03/17 11:34:00;;;;;;;4.63;1.43;;;8.60;99.10;;;;;;5010182;28;20457;-62
2024/03/17 11:36:29;;;;;;;2.33;1.60;;;8.90;98.80;;;;;;5010773;28;20956;-63
2024/03/17 11:39:01;;;;;;;8.73;1.37;;;9.30;97.90;;;;;;5010636;28;20446;-63
2024/03/17 11:41:37;;;;;;;5.03;1.33;;;9.50;98.10;;;;;;5003533;28;20422;-62
2024/03/17 11:44:24;;;;;;;5.83;1.67;;;9.30;95.60;;;;;;5006999;28;20475;-63
2024/03/17 11:47:03;;;;;;;4.77;2.00;;;9.30;95.30;;;;;;5009520;28;20422;-63
2024/03/17 11:49:39;;;;;;;5.70;1.60;;;9.10;94.70;;;;;;5010152;28;20469;-65
2024/03/17 11:52:05;;;;;;;3.00;1.23;;;9.00;94.60;;;;;;5010068;28;20418;-62
2024/03/17 11:54:34;;;;;;;2.30;1.43;;;9.40;94.10;;;;;;5010084;28;20803;-63
2024/03/17 11:57:04;;;;;;;3.67;1.53;;;9.70;93.80;;;;;;5009827;28;20419;-62
2024/03/17 11:59:29;;;;;;;2.03;1.20;;;9.50;94.50;;;;;;5010017;28;20447;-62
2024/03/17 12:01:55;;;;;;;5.33;1.67;;;9.60;94.50;;;;;;5010158;28;20484;-62
2024/03/17 12:04:22;;;;;;;1.83;1.30;;;10.00;92.70;;;;;;5006612;28;20431;-63
2024/03/17 12:07:17;;;;;;;3.53;1.90;;;9.70;93.10;;;;;;4992101;28;20319;-63
2024/03/17 12:09:45;;;;;;;7.27;1.47;;;10.00;93.20;;;;;;5007417;28;20535;-63
2024/03/17 12:12:21;;;;;;;4.10;1.90;;;10.60;91.00;;;;;;5009951;28;20456;-63
2024/03/17 12:14:48;;;;;;;4.60;2.57;;;11.00;90.70;;;;;;5010423;28;20463;-64
2024/03/17 12:17:19;;;;;;;2.40;1.53;;;11.10;90.40;;;;;;5009897;28;20415;-63
2024/03/17 12:19:45;;;;;;;1.67;1.27;;;10.90;90.20;;;;;;5010181;28;20953;-64
2024/03/17 12:22:22;;;;;;;3.30;1.40;;;10.90;89.70;;;;;;5006830;28;20435;-64
2024/03/17 12:24:49;;;;;;;6.80;1.60;;;11.30;89.30;;;;;;5005375;28;20789;-63
2024/03/17 12:27:20;;;;;;;2.70;1.73;;;11.00;87.90;;;;;;5005973;28;20774;-63
2024/03/17 12:29:48;;;;;;;2.83;1.17;;;11.30;88.50;;;;;;5007737;28;20481;-62
2024/03/17 12:32:17;;;;;;;1.50;1.10;;;11.20;84.90;;;;;;5009948;28;20434;-62
2024/03/17 12:34:52;;;;;;;2.90;1.50;;;10.70;85.60;;;;;;5008052;28;20469;-63
2024/03/17 12:37:19;;;;;;;1.77;1.40;;;10.50;87.80;;;;;;5010015;28;20419;-65
2024/03/17 12:39:45;;;;;;;5.17;2.07;;;11.20;87.50;;;;;;5012137;28;20763;-63
2024/03/17 12:42:16;;;;;;;4.10;1.87;;;11.40;86.80;;;;;;5009328;28;20522;-64
2024/03/17 12:44:57;;;;;;;4.97;1.53;;;11.40;86.40;;;;;;5009857;28;20183;-62
2024/03/17 12:47:24;;;;;;;3.83;1.70;;;11.20;85.70;;;;;;5009235;28;20966;-62
2024/03/17 12:49:57;;;;;;;3.27;2.30;;;10.80;86.40;;;;;;5009710;28;21044;-63
2024/03/17 12:52:26;;;;;;;4.07;1.73;;;10.70;87.10;;;;;;5008683;28;20526;-63
2024/03/17 13:00:32;;;;;;;4.73;1.67;;;11.00;84.20;;;;;;5002084;28;20418;-62
2024/03/17 13:03:07;;;;;;;2.07;1.47;;;11.20;83.70;;;;;;5009356;28;20423;-58